Time;durP1;ratioP1;P1;durP2;ratioP2;P2;SDS_P1;SDS_P2;PMS_P1;PMS_P2;Temp;Humidity;BMP_temperature;BMP_pressure;BME280_temperature;BME280_humidity;BME280_pressure;Samples;Min_cycle;Max_cycle;Signal;HPM_P1;HPM_P2
2021/09/16 00:01:38;;;;;;;6.23;5.70;;;20.00;99.90;;;;;;4992199;28;20184;-66
2021/09/16 00:04:05;;;;;;;5.80;5.27;;;19.90;99.90;;;;;;4991893;28;20179;-66
2021/09/16 00:06:31;;;;;;;5.63;5.13;;;20.00;99.90;;;;;;4991458;28;20274;-66
2021/09/16 00:08:57;;;;;;;6.60;5.93;;;20.00;99.90;;;;;;4992446;28;20505;-66
2021/09/16 00:11:23;;;;;;;7.07;5.90;;;19.90;99.90;;;;;;4992191;28;20934;-66
2021/09/16 00:13:49;;;;;;;5.93;5.63;;;19.90;99.90;;;;;;4974718;28;20176;-66
2021/09/16 00:16:15;;;;;;;6.00;5.43;;;19.90;99.90;;;;;;4991786;28;20513;-71
2021/09/16 00:18:41;;;;;;;6.07;5.47;;;19.80;99.90;;;;;;4992717;28;20430;-66
2021/09/16 00:21:07;;;;;;;6.70;6.27;;;19.80;99.90;;;;;;4991982;28;20972;-66
2021/09/16 00:23:32;;;;;;;5.07;4.77;;;19.80;99.90;;;;;;4991432;28;20642;-66
2021/09/16 00:25:58;;;;;;;5.53;5.03;;;19.80;99.90;;;;;;4992142;28;20179;-66
2021/09/16 00:28:24;;;;;;;5.30;4.87;;;19.80;99.90;;;;;;4991386;28;20219;-66
2021/09/16 00:30:50;;;;;;;5.20;4.90;;;19.80;99.90;;;;;;4992095;28;20214;-66
2021/09/16 00:33:15;;;;;;;5.73;5.33;;;19.80;99.90;;;;;;4974170;28;20583;-71
2021/09/16 00:35:41;;;;;;;6.43;5.80;;;19.80;99.90;;;;;;4994604;28;20183;-66
2021/09/16 00:38:07;;;;;;;5.60;5.30;;;19.70;99.90;;;;;;4995446;28;20230;-66
2021/09/16 00:40:33;;;;;;;5.83;5.40;;;19.70;99.90;;;;;;4995001;28;20252;-66
2021/09/16 00:42:59;;;;;;;5.13;4.70;;;19.70;99.90;;;;;;4994978;28;20187;-66
2021/09/16 00:45:25;;;;;;;4.63;4.33;;;19.70;99.90;;;;;;4994956;28;20403;-66
2021/09/16 00:47:52;;;;;;;5.10;4.80;;;19.70;99.90;;;;;;4995359;28;20258;-66
2021/09/16 00:50:20;;;;;;;4.43;4.03;;;19.70;99.90;;;;;;4994928;28;20182;-66
2021/09/16 00:52:47;;;;;;;4.20;3.70;;;19.60;99.90;;;;;;4995176;28;20422;-66
2021/09/16 00:55:13;;;;;;;4.47;3.90;;;19.60;99.90;;;;;;4995539;28;20433;-68
2021/09/16 00:57:43;;;;;;;6.13;3.63;;;19.60;99.90;;;;;;4994946;28;20418;-66
2021/09/16 01:00:09;;;;;;;3.57;3.20;;;19.50;99.90;;;;;;4995770;28;20906;-66
2021/09/16 01:02:36;;;;;;;4.03;3.73;;;19.50;99.90;;;;;;4993769;28;20546;-66
2021/09/16 01:05:04;;;;;;;6.20;3.50;;;19.50;99.90;;;;;;4995138;28;20466;-66
2021/09/16 01:07:30;;;;;;;3.90;3.60;;;19.50;99.90;;;;;;4994532;28;20443;-66
2021/09/16 01:09:59;;;;;;;3.73;3.30;;;19.50;99.90;;;;;;4994994;28;20878;-66
2021/09/16 01:12:25;;;;;;;3.63;3.50;;;19.40;99.90;;;;;;4994190;28;20522;-66
2021/09/16 01:14:51;;;;;;;3.50;3.20;;;19.40;99.90;;;;;;4994915;28;20407;-66
2021/09/16 01:17:17;;;;;;;4.57;3.67;;;19.40;99.90;;;;;;4994673;28;20755;-71
2021/09/16 01:19:43;;;;;;;3.50;3.20;;;19.40;99.90;;;;;;4994678;28;20183;-66
2021/09/16 01:22:18;;;;;;;3.20;3.00;;;19.30;99.90;;;;;;4995082;28;20211;-66
2021/09/16 01:24:44;;;;;;;3.87;3.20;;;19.30;99.90;;;;;;4991824;28;20183;-66
2021/09/16 01:27:10;;;;;;;3.97;3.40;;;19.30;99.90;;;;;;4994758;28;20411;-66
2021/09/16 01:29:36;;;;;;;3.90;3.33;;;19.20;99.90;;;;;;4975369;28;21124;-66
2021/09/16 01:32:05;;;;;;;3.73;3.43;;;19.20;99.90;;;;;;4994832;28;20211;-66
2021/09/16 01:34:31;;;;;;;3.80;3.60;;;19.20;99.90;;;;;;4994027;28;20176;-66
2021/09/16 01:36:57;;;;;;;3.37;3.03;;;19.20;99.90;;;;;;4994197;28;20423;-66
2021/09/16 01:39:23;;;;;;;5.83;3.40;;;19.20;99.90;;;;;;4993779;28;20430;-66
2021/09/16 01:41:49;;;;;;;3.93;3.57;;;19.20;99.90;;;;;;4994661;28;20172;-66
2021/09/16 01:44:15;;;;;;;3.70;3.40;;;19.20;99.90;;;;;;4994663;28;20403;-66
2021/09/16 01:46:41;;;;;;;4.47;3.30;;;19.20;99.90;;;;;;4992476;28;20234;-66
2021/09/16 01:49:07;;;;;;;3.87;3.60;;;19.10;99.90;;;;;;4994224;28;20282;-66
2021/09/16 01:51:34;;;;;;;6.30;4.07;;;19.10;99.90;;;;;;4993706;28;20574;-66
2021/09/16 01:54:00;;;;;;;4.00;3.80;;;19.10;99.90;;;;;;4994446;28;20262;-66
2021/09/16 01:56:26;;;;;;;3.70;3.40;;;19.10;99.90;;;;;;4993349;28;20502;-66
2021/09/16 01:58:52;;;;;;;3.67;3.47;;;19.10;99.90;;;;;;4994194;28;20958;-66
2021/09/16 02:01:18;;;;;;;4.60;4.20;;;19.10;99.90;;;;;;4994074;28;20812;-71
2021/09/16 02:03:43;;;;;;;4.10;3.80;;;19.10;99.90;;;;;;4993553;28;20419;-66
2021/09/16 02:06:09;;;;;;;3.97;3.73;;;19.10;99.90;;;;;;4993569;28;20223;-66
2021/09/16 02:08:35;;;;;;;4.57;3.60;;;19.10;99.90;;;;;;4993423;28;20227;-66
2021/09/16 02:11:01;;;;;;;4.20;3.80;;;19.10;99.90;;;;;;4993666;28;20270;-66
2021/09/16 02:13:28;;;;;;;4.57;4.07;;;19.10;99.90;;;;;;4992989;28;20550;-66
2021/09/16 02:15:54;;;;;;;5.13;4.07;;;19.10;99.90;;;;;;4993929;28;20579;-66
2021/09/16 02:18:20;;;;;;;4.30;4.10;;;19.00;99.90;;;;;;4993432;28;20438;-71
2021/09/16 02:20:45;;;;;;;5.13;4.40;;;19.10;99.90;;;;;;4993575;28;20407;-66
2021/09/16 02:23:11;;;;;;;5.50;4.00;;;19.10;99.90;;;;;;4993611;28;20176;-66
2021/09/16 02:25:37;;;;;;;4.83;4.40;;;19.10;99.90;;;;;;4993113;28;20175;-66
2021/09/16 02:28:03;;;;;;;4.60;4.10;;;19.10;99.90;;;;;;4993943;28;20208;-66
2021/09/16 02:30:28;;;;;;;4.23;3.93;;;19.10;99.90;;;;;;4992522;28;20180;-66
2021/09/16 02:32:54;;;;;;;4.57;4.17;;;19.10;99.90;;;;;;4976116;28;20895;-66
2021/09/16 02:35:20;;;;;;;4.70;4.30;;;19.10;99.90;;;;;;4993477;28;20188;-71
2021/09/16 02:37:45;;;;;;;4.93;4.53;;;19.10;99.90;;;;;;4992658;28;20191;-66
2021/09/16 02:40:12;;;;;;;4.53;4.10;;;19.10;99.90;;;;;;4993299;28;20182;-66
2021/09/16 02:42:38;;;;;;;8.33;4.30;;;19.10;99.90;;;;;;4992752;28;20536;-66
2021/09/16 02:45:06;;;;;;;3.97;3.53;;;19.10;99.90;;;;;;4993484;28;20418;-66
2021/09/16 02:47:32;;;;;;;4.60;3.90;;;19.20;99.90;;;;;;4992445;28;20404;-67
2021/09/16 02:49:57;;;;;;;4.43;4.10;;;19.10;99.90;;;;;;4993629;28;20905;-66
2021/09/16 02:52:23;;;;;;;5.00;4.60;;;19.10;99.90;;;;;;4992539;28;20171;-72
2021/09/16 02:54:49;;;;;;;5.37;4.93;;;19.10;99.90;;;;;;4993338;28;20190;-66
2021/09/16 02:57:15;;;;;;;5.23;4.83;;;19.10;99.90;;;;;;4992581;28;20282;-66
2021/09/16 02:59:40;;;;;;;4.67;4.40;;;19.10;99.90;;;;;;4992528;28;20184;-68
2021/09/16 03:02:06;;;;;;;5.50;4.80;;;19.10;99.90;;;;;;4993182;28;20662;-68
2021/09/16 03:04:32;;;;;;;5.30;4.90;;;19.10;99.90;;;;;;4992153;28;20223;-67
2021/09/16 03:06:58;;;;;;;5.87;5.40;;;19.10;99.90;;;;;;4993152;28;20191;-67
2021/09/16 03:09:23;;;;;;;5.63;4.93;;;19.10;99.90;;;;;;4992165;28;20217;-71
2021/09/16 03:11:50;;;;;;;6.43;5.73;;;19.10;99.90;;;;;;4993209;28;20184;-67
2021/09/16 03:14:16;;;;;;;6.53;6.10;;;19.10;99.80;;;;;;4992420;28;20415;-68
2021/09/16 03:16:42;;;;;;;6.27;5.70;;;19.10;99.90;;;;;;4992235;28;20601;-68
2021/09/16 03:19:08;;;;;;;7.17;6.37;;;19.00;99.60;;;;;;4975786;28;20176;-68
2021/09/16 03:21:34;;;;;;;6.53;5.33;;;19.00;99.90;;;;;;4974576;28;20506;-68
2021/09/16 03:24:00;;;;;;;5.93;5.43;;;18.90;99.60;;;;;;4992857;28;20403;-68
2021/09/16 03:26:26;;;;;;;6.67;4.80;;;18.90;99.90;;;;;;4992267;28;20422;-73
2021/09/16 03:28:52;;;;;;;5.40;5.00;;;18.90;99.90;;;;;;4992866;28;20218;-68
2021/09/16 03:31:17;;;;;;;5.53;5.03;;;18.90;99.90;;;;;;4992648;28;20507;-68
2021/09/16 03:33:43;;;;;;;5.53;4.97;;;18.90;99.90;;;;;;4974315;28;20282;-67
2021/09/16 03:36:09;;;;;;;5.20;4.80;;;18.80;99.90;;;;;;4992980;28;20176;-68
2021/09/16 03:38:35;;;;;;;7.43;4.20;;;18.80;99.90;;;;;;4991999;28;20214;-67
2021/09/16 03:41:01;;;;;;;5.73;5.23;;;18.80;99.90;;;;;;4992679;28;20406;-67
2021/09/16 03:43:27;;;;;;;11.40;5.40;;;18.80;99.90;;;;;;4991623;28;20176;-72
2021/09/16 03:45:53;;;;;;;7.60;7.00;;;18.80;99.90;;;;;;4992440;28;20957;-67
2021/09/16 03:48:19;;;;;;;8.77;4.57;;;18.70;99.90;;;;;;4974774;28;20481;-68
2021/09/16 03:50:45;;;;;;;5.40;4.90;;;18.70;99.90;;;;;;4991970;28;20398;-67
2021/09/16 03:53:11;;;;;;;5.07;4.57;;;18.70;99.90;;;;;;4992064;28;20501;-68
2021/09/16 03:55:36;;;;;;;4.23;3.80;;;18.70;99.90;;;;;;4991838;28;20179;-67
2021/09/16 03:58:02;;;;;;;4.47;4.17;;;18.70;99.90;;;;;;4992636;28;20285;-67
2021/09/16 04:00:28;;;;;;;7.60;7.00;;;18.70;99.90;;;;;;4991883;28;20407;-72
2021/09/16 04:02:54;;;;;;;9.63;4.67;;;18.70;99.90;;;;;;4992617;28;20183;-67
2021/09/16 04:05:19;;;;;;;4.10;3.70;;;18.70;99.90;;;;;;4991859;28;20350;-68
2021/09/16 04:07:45;;;;;;;5.63;4.50;;;18.70;99.90;;;;;;4991683;28;20183;-67
2021/09/16 04:10:11;;;;;;;5.67;5.27;;;18.70;99.90;;;;;;4994168;28;20182;-68
2021/09/16 04:12:37;;;;;;;5.30;5.00;;;18.60;99.90;;;;;;4995581;28;20172;-67
2021/09/16 04:15:04;;;;;;;4.77;4.43;;;18.60;99.90;;;;;;4978936;28;20419;-67
2021/09/16 04:17:30;;;;;;;3.90;3.60;;;18.60;99.90;;;;;;4995478;28;20418;-68
2021/09/16 04:19:56;;;;;;;4.23;3.93;;;18.60;99.90;;;;;;4996251;28;20410;-67
2021/09/16 04:22:22;;;;;;;4.13;3.57;;;18.60;99.90;;;;;;4996229;28;20920;-67
2021/09/16 04:24:48;;;;;;;4.27;3.63;;;18.60;99.90;;;;;;4995374;28;20295;-67
2021/09/16 04:27:13;;;;;;;5.37;4.10;;;18.50;99.90;;;;;;4996114;28;20247;-67
2021/09/16 04:29:40;;;;;;;4.63;4.23;;;18.50;99.90;;;;;;4995192;28;20513;-67
2021/09/16 04:32:06;;;;;;;5.30;4.20;;;18.50;99.90;;;;;;4995794;28;20195;-67
2021/09/16 04:34:32;;;;;;;4.27;4.07;;;18.50;99.90;;;;;;4995106;28;20419;-68
2021/09/16 04:36:58;;;;;;;4.17;3.87;;;18.50;99.90;;;;;;4995425;28;20419;-67
2021/09/16 04:39:23;;;;;;;5.40;4.90;;;18.50;99.90;;;;;;4995905;28;20711;-68
2021/09/16 04:41:49;;;;;;;4.90;4.60;;;18.40;99.90;;;;;;4994604;28;20254;-68
2021/09/16 04:44:15;;;;;;;5.23;4.73;;;18.40;99.90;;;;;;4995805;28;20176;-67
2021/09/16 04:46:41;;;;;;;5.90;3.87;;;18.40;99.90;;;;;;4994578;28;20238;-67
2021/09/16 04:49:07;;;;;;;7.47;6.87;;;18.40;99.90;;;;;;4995136;28;20474;-67
2021/09/16 04:51:32;;;;;;;6.07;5.47;;;18.40;99.90;;;;;;4994784;28;20229;-68
2021/09/16 04:53:58;;;;;;;5.03;4.40;;;18.40;99.90;;;;;;4995398;28;20188;-67
2021/09/16 04:56:24;;;;;;;6.50;5.90;;;18.30;99.90;;;;;;4995604;28;20399;-67
2021/09/16 04:58:50;;;;;;;5.80;5.30;;;18.30;99.90;;;;;;4994653;28;20186;-67
2021/09/16 05:01:15;;;;;;;7.00;6.50;;;18.30;99.90;;;;;;4993897;28;20620;-67
2021/09/16 05:03:41;;;;;;;8.17;7.63;;;18.30;99.90;;;;;;4977021;28;20230;-67
2021/09/16 05:06:07;;;;;;;5.77;5.27;;;18.30;99.90;;;;;;4994928;28;20215;-67
2021/09/16 05:08:32;;;;;;;9.20;8.20;;;18.30;99.90;;;;;;4993860;28;20204;-69
2021/09/16 05:10:58;;;;;;;5.47;4.93;;;18.30;99.90;;;;;;4960949;28;20271;-67
2021/09/16 05:13:24;;;;;;;8.57;5.50;;;18.30;99.90;;;;;;4994820;28;20262;-67
2021/09/16 05:15:50;;;;;;;8.03;7.43;;;18.30;99.90;;;;;;4994399;28;20183;-67
2021/09/16 05:18:16;;;;;;;6.07;5.57;;;18.30;99.90;;;;;;4993836;28;20194;-67
2021/09/16 05:20:42;;;;;;;6.23;5.73;;;18.30;99.90;;;;;;4993679;28;20513;-67
2021/09/16 05:23:07;;;;;;;6.23;5.57;;;18.30;99.90;;;;;;4994686;28;20183;-67
2021/09/16 05:25:33;;;;;;;7.67;5.37;;;18.30;99.90;;;;;;4992093;28;20530;-71
2021/09/16 05:27:59;;;;;;;8.97;5.30;;;18.30;99.90;;;;;;4994193;28;20194;-67
2021/09/16 05:30:25;;;;;;;7.23;6.60;;;18.30;99.90;;;;;;4994302;28;20223;-67
2021/09/16 05:32:51;;;;;;;7.10;5.80;;;18.30;99.90;;;;;;4989713;28;20411;-67
2021/09/16 05:35:17;;;;;;;6.13;5.73;;;18.20;99.90;;;;;;4993616;28;20182;-67
2021/09/16 05:37:42;;;;;;;9.80;5.70;;;18.20;99.90;;;;;;4992612;28;20266;-67
2021/09/16 05:40:10;;;;;;;6.50;5.43;;;18.10;99.90;;;;;;4993052;28;20747;-67
2021/09/16 05:42:36;;;;;;;8.17;7.53;;;18.20;99.90;;;;;;4992467;28;20191;-67
2021/09/16 05:45:04;;;;;;;7.90;7.30;;;18.10;99.90;;;;;;4992498;28;20423;-67
2021/09/16 05:47:30;;;;;;;7.10;6.03;;;18.20;99.90;;;;;;4992508;28;20934;-69
2021/09/16 05:49:56;;;;;;;8.00;7.20;;;18.10;99.90;;;;;;4994222;28;20470;-69
2021/09/16 05:52:21;;;;;;;8.50;6.20;;;18.20;99.90;;;;;;4993776;28;20187;-73
2021/09/16 05:54:47;;;;;;;8.03;7.53;;;18.30;99.90;;;;;;4993076;28;20184;-69
2021/09/16 05:57:13;;;;;;;5.70;5.30;;;18.50;99.90;;;;;;4994011;28;20176;-69
2021/09/16 05:59:39;;;;;;;6.20;5.60;;;18.60;99.90;;;;;;4993420;28;20518;-68
2021/09/16 06:02:04;;;;;;;8.50;7.90;;;18.60;99.90;;;;;;4994721;28;20203;-69
2021/09/16 06:04:30;;;;;;;6.43;5.80;;;18.60;99.90;;;;;;4993801;28;20227;-71
2021/09/16 06:06:59;;;;;;;7.80;7.10;;;18.50;99.90;;;;;;4994269;28;20588;-70
2021/09/16 06:09:24;;;;;;;7.90;7.17;;;18.50;99.90;;;;;;4994183;28;20486;-70
2021/09/16 06:11:50;;;;;;;7.77;6.97;;;18.40;99.90;;;;;;4993856;28;20956;-70
2021/09/16 06:14:16;;;;;;;6.83;5.50;;;18.40;99.90;;;;;;4994157;28;20172;-70
2021/09/16 06:16:41;;;;;;;6.80;5.50;;;18.40;99.90;;;;;;4993794;28;20631;-69
2021/09/16 06:19:07;;;;;;;7.77;7.07;;;18.30;99.90;;;;;;4994322;28;20211;-69
2021/09/16 06:21:33;;;;;;;7.27;6.57;;;18.30;99.90;;;;;;4993549;28;20188;-70
2021/09/16 06:23:58;;;;;;;7.30;6.60;;;18.20;99.90;;;;;;4988134;28;20180;-69
2021/09/16 06:26:24;;;;;;;7.87;7.13;;;18.20;99.90;;;;;;4975591;28;20704;-69
2021/09/16 06:28:50;;;;;;;8.20;6.87;;;18.20;99.90;;;;;;4993134;28;20295;-69
2021/09/16 06:31:15;;;;;;;6.50;6.00;;;18.10;99.90;;;;;;4992351;28;20238;-69
2021/09/16 06:33:41;;;;;;;8.60;6.30;;;18.10;99.90;;;;;;4992186;28;20227;-69
2021/09/16 06:36:07;;;;;;;7.50;6.80;;;18.00;99.90;;;;;;4992568;28;20183;-69
2021/09/16 06:38:33;;;;;;;6.43;5.83;;;18.10;99.90;;;;;;4975674;28;20199;-69
2021/09/16 06:40:59;;;;;;;7.77;6.93;;;18.00;99.90;;;;;;4992715;28;20190;-69
2021/09/16 06:43:24;;;;;;;8.93;7.93;;;18.00;99.90;;;;;;4992991;28;20188;-69
2021/09/16 06:45:50;;;;;;;10.47;8.20;;;17.90;99.90;;;;;;4991914;28;20211;-70
2021/09/16 06:48:16;;;;;;;9.20;8.30;;;17.90;99.90;;;;;;4992543;28;20203;-69
2021/09/16 06:50:41;;;;;;;8.70;7.70;;;18.00;99.90;;;;;;4993202;28;20671;-69
2021/09/16 06:53:07;;;;;;;7.87;7.17;;;18.00;99.90;;;;;;4993387;28;20307;-70
2021/09/16 06:55:33;;;;;;;8.80;7.73;;;18.00;99.90;;;;;;4985497;28;20184;-69
2021/09/16 06:57:59;;;;;;;10.67;9.83;;;18.00;99.90;;;;;;4994271;28;20193;-69
2021/09/16 07:00:25;;;;;;;9.80;8.80;;;18.00;99.90;;;;;;4993502;28;20435;-69
2021/09/16 07:02:51;;;;;;;9.63;8.77;;;18.00;99.90;;;;;;4992480;28;20179;-69
2021/09/16 07:05:17;;;;;;;9.77;8.47;;;18.00;99.90;;;;;;4992888;28;20230;-69
2021/09/16 07:07:42;;;;;;;10.40;9.50;;;18.00;99.90;;;;;;4992894;28;20266;-69
2021/09/16 07:10:09;;;;;;;10.07;9.13;;;18.00;99.90;;;;;;4993216;28;21053;-69
2021/09/16 07:12:35;;;;;;;10.57;9.53;;;18.00;99.90;;;;;;4993108;28;20180;-70
2021/09/16 07:15:01;;;;;;;10.73;9.47;;;18.00;99.90;;;;;;4993267;28;20426;-70
2021/09/16 07:17:27;;;;;;;10.27;9.13;;;18.00;99.90;;;;;;4993039;28;20422;-69
2021/09/16 07:19:52;;;;;;;11.87;10.67;;;18.00;99.90;;;;;;4992675;28;20218;-69
2021/09/16 07:22:18;;;;;;;10.17;9.13;;;17.90;99.90;;;;;;4993255;28;20229;-69
2021/09/16 07:24:44;;;;;;;10.10;9.07;;;17.90;99.90;;;;;;4992506;28;20245;-69
2021/09/16 07:27:10;;;;;;;10.03;9.17;;;17.90;99.90;;;;;;4993607;28;20179;-69
2021/09/16 07:29:36;;;;;;;13.33;12.33;;;18.00;99.90;;;;;;4992998;28;20459;-69
2021/09/16 07:32:01;;;;;;;11.67;10.67;;;18.00;99.90;;;;;;4993023;28;20180;-69
2021/09/16 07:34:27;;;;;;;11.90;10.60;;;17.90;99.90;;;;;;4992672;28;20853;-70
2021/09/16 07:36:53;;;;;;;11.33;10.13;;;17.90;99.90;;;;;;4991112;28;20179;-69
2021/09/16 07:39:20;;;;;;;10.00;9.00;;;17.90;99.90;;;;;;4992996;28;20184;-69
2021/09/16 07:41:47;;;;;;;13.27;10.50;;;17.90;99.90;;;;;;4991879;28;20184;-69
2021/09/16 07:44:13;;;;;;;11.10;10.10;;;17.80;99.90;;;;;;4992125;28;20419;-69
2021/09/16 07:46:39;;;;;;;11.10;10.00;;;17.90;99.90;;;;;;4995801;28;20430;-69
2021/09/16 07:49:05;;;;;;;11.20;10.20;;;17.80;99.90;;;;;;4996185;28;20462;-69
2021/09/16 07:51:31;;;;;;;10.90;9.90;;;17.80;99.90;;;;;;4996831;28;20211;-70
2021/09/16 07:53:57;;;;;;;11.67;10.67;;;17.80;99.90;;;;;;4996430;28;20789;-70
2021/09/16 07:56:22;;;;;;;12.30;11.10;;;17.80;99.90;;;;;;4996676;28;20778;-70
2021/09/16 07:58:48;;;;;;;11.37;10.50;;;17.80;99.90;;;;;;4996349;28;20314;-70
2021/09/16 08:01:14;;;;;;;12.00;10.90;;;17.80;99.90;;;;;;4996931;28;20198;-70
2021/09/16 08:03:40;;;;;;;10.63;9.53;;;17.80;99.90;;;;;;4996370;28;20172;-70
2021/09/16 08:06:05;;;;;;;10.37;9.50;;;17.80;99.90;;;;;;4996845;28;20257;-70
2021/09/16 08:08:32;;;;;;;10.07;9.20;;;17.80;99.90;;;;;;4996773;28;20223;-70
2021/09/16 08:10:58;;;;;;;10.43;9.53;;;17.80;99.90;;;;;;4996141;28;20250;-70
2021/09/16 08:13:24;;;;;;;10.13;9.23;;;17.80;99.90;;;;;;4996686;28;20505;-70
2021/09/16 08:15:51;;;;;;;10.90;10.00;;;17.80;99.90;;;;;;4995491;28;20504;-70
2021/09/16 08:18:17;;;;;;;11.47;10.47;;;17.70;99.90;;;;;;4996667;28;20950;-70
2021/09/16 08:20:47;;;;;;;10.67;9.77;;;17.70;99.90;;;;;;4995948;28;20501;-70
2021/09/16 08:23:12;;;;;;;11.73;10.73;;;17.70;99.90;;;;;;4996079;28;20419;-70
2021/09/16 08:25:38;;;;;;;12.00;10.90;;;17.70;99.90;;;;;;4996242;28;20458;-70
2021/09/16 08:28:04;;;;;;;12.20;10.87;;;17.70;99.90;;;;;;4996493;28;20176;-70
2021/09/16 08:30:30;;;;;;;11.40;10.40;;;17.80;99.90;;;;;;4978853;28;20514;-70
2021/09/16 08:32:56;;;;;;;12.97;11.77;;;17.80;99.90;;;;;;4995372;28;20183;-69
2021/09/16 08:35:22;;;;;;;11.50;10.50;;;17.80;99.90;;;;;;4996739;28;20517;-70
2021/09/16 08:37:47;;;;;;;12.57;10.73;;;17.80;99.90;;;;;;4978265;28;20186;-70
2021/09/16 08:40:15;;;;;;;13.40;12.17;;;17.80;99.90;;;;;;4996060;28;20656;-70
2021/09/16 08:42:42;;;;;;;12.70;11.50;;;17.80;99.90;;;;;;4995645;28;20188;-70
2021/09/16 08:45:14;;;;;;;12.00;10.90;;;17.80;99.90;;;;;;4995834;28;20411;-70
2021/09/16 08:47:44;;;;;;;13.00;11.70;;;17.80;99.90;;;;;;4996155;28;20427;-70
2021/09/16 08:50:11;;;;;;;12.17;11.13;;;17.80;99.90;;;;;;4995591;28;20533;-70
2021/09/16 08:52:42;;;;;;;12.77;11.43;;;17.80;99.90;;;;;;4995521;28;20430;-69
2021/09/16 08:55:10;;;;;;;14.73;13.37;;;17.80;99.90;;;;;;4995415;28;20415;-71
2021/09/16 08:57:38;;;;;;;12.40;11.30;;;17.90;99.90;;;;;;5000793;28;20477;-70
2021/09/16 09:00:12;;;;;;;13.07;11.97;;;17.90;99.90;;;;;;4997755;28;20938;-71
2021/09/16 09:02:38;;;;;;;14.50;13.00;;;17.90;99.90;;;;;;4995491;28;20770;-70
2021/09/16 09:05:06;;;;;;;12.00;10.73;;;17.90;99.90;;;;;;4994916;28;20544;-70
2021/09/16 09:07:46;;;;;;;12.30;11.30;;;17.90;99.90;;;;;;4995028;28;20464;-70
2021/09/16 09:10:31;;;;;;;12.93;11.63;;;18.00;99.90;;;;;;4995475;28;20442;-70
2021/09/16 09:12:58;;;;;;;13.37;12.27;;;18.00;99.90;;;;;;4994861;28;20439;-71
2021/09/16 09:15:24;;;;;;;13.93;12.80;;;18.00;99.90;;;;;;4995327;28;20768;-70
2021/09/16 09:18:11;;;;;;;12.97;11.83;;;18.00;99.90;;;;;;4977475;28;20470;-70
2021/09/16 09:21:13;;;;;;;12.80;11.67;;;18.00;99.90;;;;;;4995559;28;20457;-70
2021/09/16 09:23:44;;;;;;;13.83;12.63;;;18.10;99.90;;;;;;4916156;29;20529;-70
2021/09/16 09:26:27;;;;;;;13.20;11.93;;;18.10;99.90;;;;;;4983084;28;20444;-70
2021/09/16 09:29:12;;;;;;;13.13;11.93;;;18.20;99.90;;;;;;4994670;28;20512;-70
2021/09/16 09:31:40;;;;;;;14.10;12.60;;;18.20;99.90;;;;;;4995183;28;20409;-70
2021/09/16 09:34:21;;;;;;;13.67;12.40;;;18.30;99.90;;;;;;4994488;28;20415;-71
2021/09/16 09:36:47;;;;;;;13.30;12.10;;;18.30;99.90;;;;;;4994687;28;20402;-70
2021/09/16 09:39:13;;;;;;;14.93;13.73;;;18.40;99.90;;;;;;4995154;28;20485;-70
2021/09/16 09:41:39;;;;;;;14.27;13.00;;;18.50;99.90;;;;;;4977591;28;20208;-70
2021/09/16 09:44:08;;;;;;;14.67;13.17;;;18.50;99.90;;;;;;4994755;28;20438;-70
2021/09/16 09:46:53;;;;;;;15.40;14.20;;;18.50;99.90;;;;;;4995015;28;20255;-70
2021/09/16 09:49:24;;;;;;;12.23;11.10;;;18.50;99.90;;;;;;4977512;28;20818;-70
2021/09/16 09:51:53;;;;;;;15.40;14.13;;;18.60;99.90;;;;;;4994031;28;20749;-70
2021/09/16 09:54:24;;;;;;;15.23;13.90;;;18.60;99.90;;;;;;4994618;28;20411;-71
2021/09/16 09:57:16;;;;;;;13.33;12.03;;;18.60;99.90;;;;;;4994029;28;20796;-71
2021/09/16 09:59:53;;;;;;;16.13;14.77;;;18.60;99.90;;;;;;4991046;28;20427;-70
2021/09/16 10:02:21;;;;;;;14.97;13.30;;;18.60;99.90;;;;;;4994762;28;20828;-70
2021/09/16 10:04:48;;;;;;;15.10;13.50;;;18.70;99.90;;;;;;4993807;28;20474;-70
2021/09/16 10:07:35;;;;;;;16.40;15.00;;;18.70;99.90;;;;;;4993767;28;20946;-70
2021/09/16 10:10:08;;;;;;;15.00;13.80;;;18.70;99.90;;;;;;4993728;28;20568;-70
2021/09/16 10:12:34;;;;;;;14.83;13.33;;;18.80;99.90;;;;;;4994718;28;20395;-71
2021/09/16 10:15:00;;;;;;;15.50;14.00;;;18.80;99.90;;;;;;4993860;28;20443;-70
2021/09/16 10:17:26;;;;;;;16.10;13.70;;;18.80;99.90;;;;;;4994532;28;20435;-70
2021/09/16 10:19:52;;;;;;;14.23;13.07;;;18.80;99.90;;;;;;4993493;28;20408;-70
2021/09/16 10:22:18;;;;;;;15.73;14.33;;;18.90;99.90;;;;;;4993949;28;20226;-70
2021/09/16 10:24:45;;;;;;;15.43;14.03;;;18.90;99.90;;;;;;4976854;28;20477;-70
2021/09/16 10:27:33;;;;;;;15.40;14.10;;;18.90;99.90;;;;;;4993973;28;20507;-70
2021/09/16 10:30:19;;;;;;;15.17;13.80;;;18.90;99.90;;;;;;4993558;28;20463;-71
2021/09/16 10:32:45;;;;;;;14.57;13.37;;;19.00;99.90;;;;;;4976757;28;20439;-70
2021/09/16 10:35:18;;;;;;;13.63;12.43;;;19.00;99.90;;;;;;4993625;28;20451;-71
2021/09/16 10:37:44;;;;;;;13.80;12.70;;;19.10;99.90;;;;;;4993780;28;20593;-71
2021/09/16 10:40:28;;;;;;;15.40;14.00;;;19.10;99.90;;;;;;4993354;28;20421;-70
2021/09/16 10:43:01;;;;;;;14.27;13.07;;;19.10;99.90;;;;;;4993485;28;20406;-70
2021/09/16 10:45:47;;;;;;;14.33;12.90;;;19.10;99.90;;;;;;4993972;28;20743;-70
2021/09/16 10:48:13;;;;;;;14.87;13.57;;;19.10;99.90;;;;;;4993964;28;20831;-71
2021/09/16 10:50:48;;;;;;;14.67;13.57;;;19.10;99.90;;;;;;4993700;28;20399;-70
2021/09/16 10:53:40;;;;;;;15.43;14.23;;;19.20;99.90;;;;;;4993752;28;20183;-71
2021/09/16 10:56:26;;;;;;;15.50;14.23;;;19.30;99.90;;;;;;4993132;28;20510;-70
2021/09/16 10:58:54;;;;;;;15.00;13.90;;;19.60;99.90;;;;;;4992809;28;20510;-70
2021/09/16 11:01:51;;;;;;;13.80;12.80;;;19.80;99.90;;;;;;4993229;28;20967;-70
2021/09/16 11:04:18;;;;;;;13.67;12.57;;;19.90;99.90;;;;;;4993299;28;20458;-70
2021/09/16 11:06:44;;;;;;;13.70;12.60;;;20.10;99.90;;;;;;4993691;28;20415;-71
2021/09/16 11:09:12;;;;;;;13.57;12.40;;;20.30;99.90;;;;;;4992877;28;20532;-70
2021/09/16 11:11:49;;;;;;;13.60;12.70;;;20.30;99.90;;;;;;4993282;28;20465;-70
2021/09/16 11:14:28;;;;;;;13.33;12.40;;;20.50;99.90;;;;;;4993492;28;20415;-70
2021/09/16 11:16:57;;;;;;;12.10;11.00;;;20.70;99.90;;;;;;4992820;28;20403;-70
2021/09/16 11:19:23;;;;;;;13.80;12.77;;;20.90;99.90;;;;;;4993297;28;20425;-70
2021/09/16 11:22:07;;;;;;;12.67;11.63;;;21.20;99.90;;;;;;4993669;28;20415;-70
2021/09/16 11:24:36;;;;;;;11.63;10.83;;;21.40;99.90;;;;;;4993379;28;20461;-70
2021/09/16 11:27:02;;;;;;;10.20;9.50;;;21.60;99.90;;;;;;4992502;28;20411;-70
2021/09/16 11:29:38;;;;;;;9.13;8.50;;;21.70;99.20;;;;;;4975848;28;20465;-70
2021/09/16 11:32:04;;;;;;;10.70;10.03;;;21.60;99.20;;;;;;4992748;28;20406;-70
2021/09/16 11:34:30;;;;;;;9.10;8.30;;;21.50;98.40;;;;;;4975651;28;20415;-70
2021/09/16 11:37:19;;;;;;;7.87;7.47;;;21.40;98.30;;;;;;4992296;28;20505;-70
2021/09/16 11:40:10;;;;;;;9.30;8.60;;;21.20;98.70;;;;;;4993214;28;20191;-70
2021/09/16 11:42:39;;;;;;;8.07;7.60;;;21.10;99.30;;;;;;4975857;28;20494;-70
2021/09/16 11:45:07;;;;;;;8.07;7.43;;;21.00;99.40;;;;;;4992581;28;20501;-70
2021/09/16 11:47:39;;;;;;;8.70;8.00;;;20.90;99.90;;;;;;4993072;28;20465;-70
2021/09/16 11:50:08;;;;;;;7.37;6.97;;;20.80;99.90;;;;;;4992444;28;20508;-70
2021/09/16 11:52:37;;;;;;;8.03;7.47;;;20.70;99.40;;;;;;4993075;28;20773;-70
2021/09/16 11:55:03;;;;;;;7.40;6.93;;;20.70;99.90;;;;;;4992443;28;20774;-70
2021/09/16 11:57:29;;;;;;;8.60;7.87;;;20.60;99.90;;;;;;4993141;28;20407;-70
2021/09/16 11:59:54;;;;;;;8.07;7.37;;;20.60;99.90;;;;;;4992376;28;20270;-70
2021/09/16 12:02:20;;;;;;;7.83;7.37;;;20.50;99.90;;;;;;4992998;28;20234;-70
2021/09/16 12:04:46;;;;;;;7.70;7.23;;;20.50;99.90;;;;;;4992684;28;20215;-70
2021/09/16 12:07:16;;;;;;;8.40;7.80;;;20.50;99.90;;;;;;4974997;28;20210;-70
2021/09/16 12:09:42;;;;;;;8.23;7.63;;;20.50;99.90;;;;;;4992839;28;20211;-71
2021/09/16 12:12:09;;;;;;;6.93;6.53;;;20.50;99.90;;;;;;4992299;28;20450;-70
2021/09/16 12:14:38;;;;;;;7.80;7.30;;;20.50;99.90;;;;;;4992873;28;20414;-70
2021/09/16 12:17:04;;;;;;;9.40;8.90;;;20.40;99.90;;;;;;4992322;28;20732;-69
2021/09/16 12:19:30;;;;;;;8.80;8.37;;;20.40;99.90;;;;;;4992929;28;20423;-70
2021/09/16 12:21:57;;;;;;;8.53;7.77;;;20.30;99.50;;;;;;4992274;28;20418;-71
2021/09/16 12:24:28;;;;;;;8.80;8.30;;;20.30;99.90;;;;;;4992827;28;20415;-70
2021/09/16 12:26:55;;;;;;;8.13;7.53;;;20.30;99.90;;;;;;4974746;28;20392;-70
2021/09/16 12:29:23;;;;;;;7.30;6.90;;;20.30;99.90;;;;;;4992758;28;20946;-70
2021/09/16 12:32:04;;;;;;;7.93;7.23;;;20.20;99.90;;;;;;4995562;28;20438;-70
2021/09/16 12:34:34;;;;;;;8.20;7.50;;;20.20;99.90;;;;;;4996371;28;20786;-71
2021/09/16 12:37:10;;;;;;;8.80;8.20;;;20.20;99.90;;;;;;4995806;28;20475;-70
2021/09/16 12:39:54;;;;;;;9.80;9.10;;;20.20;99.90;;;;;;4996003;28;21041;-70
2021/09/16 12:42:36;;;;;;;8.90;8.40;;;20.20;99.90;;;;;;4995996;28;20379;-71
2021/09/16 12:45:13;;;;;;;9.10;8.47;;;20.20;99.90;;;;;;4995525;28;20414;-70